createdAt,value
2019-03-23T00:05:00.527Z,99.90
2019-03-23T00:10:07.664Z,99.90
2019-03-23T00:15:14.271Z,99.90
2019-03-23T00:20:20.684Z,99.90
2019-03-23T00:25:27.903Z,99.90
2019-03-23T00:30:41.819Z,99.90
2019-03-23T00:35:47.601Z,99.90
2019-03-23T00:40:53.165Z,99.90
2019-03-23T00:45:58.935Z,99.90
2019-03-23T00:51:04.215Z,99.90
2019-03-23T00:56:09.555Z,99.90
2019-03-23T01:01:15.181Z,99.90
2019-03-23T01:06:20.263Z,99.90
2019-03-23T01:11:25.215Z,99.90
2019-03-23T01:16:31.937Z,99.90
2019-03-23T01:21:37.465Z,99.90
2019-03-23T01:26:42.910Z,99.90
2019-03-23T01:31:48.204Z,99.90
2019-03-23T01:37:02.557Z,99.90
2019-03-23T01:42:01.368Z,99.90
2019-03-23T01:47:06.898Z,99.90
2019-03-23T01:52:14.407Z,99.90
2019-03-23T01:57:20.162Z,99.90
2019-03-23T02:02:26.768Z,99.90
2019-03-23T02:07:32.607Z,99.90
2019-03-23T02:12:38.384Z,99.90
2019-03-23T02:17:45.168Z,99.90
2019-03-23T02:22:52.814Z,99.90
2019-03-23T02:28:00.150Z,99.90
2019-03-23T02:33:06.691Z,99.90
2019-03-23T02:38:12.864Z,99.90
2019-03-23T02:43:18.864Z,99.90
2019-03-23T02:48:24.395Z,99.90
2019-03-23T02:53:30.594Z,99.90
2019-03-23T02:58:35.877Z,99.90
2019-03-23T03:03:41.435Z,99.90
2019-03-23T03:08:47.047Z,99.90
2019-03-23T03:13:55.295Z,99.90
2019-03-23T03:19:02.317Z,99.90
2019-03-23T03:24:07.597Z,99.90
2019-03-23T03:29:13.480Z,99.90
2019-03-23T03:34:18.907Z,99.90
2019-03-23T03:39:24.390Z,99.90
2019-03-23T03:44:32.217Z,99.90
2019-03-23T03:49:38.196Z,99.90
2019-03-23T03:54:44.038Z,99.90
2019-03-23T03:59:49.568Z,99.90
2019-03-23T04:04:54.721Z,99.90
2019-03-23T04:10:00.611Z,99.90
2019-03-23T04:15:06.513Z,99.90
2019-03-23T04:20:12.352Z,99.90
2019-03-23T04:25:21.125Z,99.90
2019-03-23T04:30:26.078Z,99.90
2019-03-23T04:35:31.403Z,99.90
2019-03-23T04:40:37.201Z,99.90
2019-03-23T04:45:43.462Z,99.90
2019-03-23T04:50:48.820Z,99.90
2019-03-23T04:55:55.060Z,99.90
2019-03-23T05:01:00.648Z,99.90
2019-03-23T05:06:06.142Z,99.90
2019-03-23T05:11:12.395Z,99.90
2019-03-23T05:16:18.494Z,99.90
2019-03-23T05:21:24.603Z,99.90
2019-03-23T05:26:30.151Z,99.90
2019-03-23T05:31:37.282Z,99.90
2019-03-23T05:36:46.300Z,99.90
2019-03-23T05:41:55.677Z,99.90
2019-03-23T05:47:07.139Z,99.90
2019-03-23T05:52:12.877Z,99.90
2019-03-23T05:57:19.900Z,99.90
2019-03-23T06:02:25.688Z,99.90
2019-03-23T06:07:33.021Z,99.90
2019-03-23T06:12:39.445Z,99.90
2019-03-23T06:17:45.119Z,99.90
2019-03-23T06:22:53.568Z,99.90
2019-03-23T06:27:58.911Z,99.90
2019-03-23T06:33:05.165Z,99.90
2019-03-23T06:38:10.601Z,99.90
2019-03-23T06:43:17.730Z,99.90
2019-03-23T06:48:23.522Z,99.90
2019-03-23T06:53:45.678Z,99.90
2019-03-23T06:58:51.847Z,93.10
2019-03-23T07:03:57.706Z,78.00
2019-03-23T07:09:04.474Z,67.90
2019-03-23T07:14:10.115Z,63.90
2019-03-23T07:19:15.402Z,60.10
2019-03-23T07:24:20.976Z,59.90
2019-03-23T07:29:29.422Z,59.50
2019-03-23T07:34:35.349Z,57.90
2019-03-23T07:39:41.135Z,58.00
2019-03-23T07:44:46.689Z,56.40
2019-03-23T07:49:52.495Z,57.00
2019-03-23T07:55:13.365Z,58.30
2019-03-23T08:00:22.239Z,57.20
2019-03-23T08:05:27.705Z,57.50
2019-03-23T08:10:34.387Z,54.30
2019-03-23T08:15:40.086Z,54.00
2019-03-23T08:20:48.574Z,53.90
2019-03-23T08:25:54.119Z,52.40
2019-03-23T08:31:01.951Z,51.30
2019-03-23T08:36:07.044Z,51.00
2019-03-23T08:41:13.279Z,52.40
2019-03-23T08:46:19.435Z,53.50
2019-03-23T08:51:27.498Z,52.30
2019-03-23T08:56:32.926Z,55.70
2019-03-23T09:01:38.434Z,53.30
2019-03-23T09:06:44.471Z,53.50
2019-03-23T09:11:50.220Z,53.80
2019-03-23T09:16:55.723Z,53.10
2019-03-23T09:22:01.115Z,52.80
2019-03-23T09:27:07.867Z,52.00
2019-03-23T09:32:13.067Z,52.90
2019-03-23T09:37:18.291Z,52.30
2019-03-23T09:42:26.127Z,51.40
2019-03-23T09:47:31.690Z,52.10
2019-03-23T09:52:38.054Z,49.50
2019-03-23T09:57:43.575Z,49.50
2019-03-23T10:02:48.602Z,49.40
2019-03-23T10:07:56.548Z,51.00
2019-03-23T10:13:02.242Z,51.60
2019-03-23T10:18:10.503Z,52.10
2019-03-23T10:23:16.190Z,54.20
2019-03-23T10:28:23.399Z,54.60
2019-03-23T10:33:28.457Z,56.60
2019-03-23T10:38:34.752Z,57.90
2019-03-23T10:43:39.815Z,56.00
2019-03-23T10:48:44.970Z,56.10
2019-03-23T10:53:50.472Z,54.10
2019-03-23T10:58:55.552Z,55.20
2019-03-23T11:04:01.607Z,55.50
2019-03-23T11:09:08.782Z,54.40
2019-03-23T11:14:17.958Z,53.70
2019-03-23T11:19:23.322Z,56.40
2019-03-23T11:24:28.484Z,57.10
2019-03-23T11:29:34.004Z,56.30
2019-03-23T11:34:41.673Z,54.20
2019-03-23T11:39:46.687Z,55.20
2019-03-23T11:44:52.276Z,56.40
2019-03-23T11:50:00.129Z,55.00
2019-03-23T11:55:06.151Z,54.80
2019-03-23T12:00:12.693Z,55.60
2019-03-23T12:05:17.819Z,53.70
2019-03-23T12:10:23.124Z,56.00
2019-03-23T12:15:29.804Z,54.10
2019-03-23T12:20:36.190Z,51.40
2019-03-23T12:25:41.934Z,50.60
2019-03-23T12:30:47.240Z,49.20
2019-03-23T12:35:52.881Z,50.10
2019-03-23T12:41:09.973Z,47.90
2019-03-23T12:46:07.080Z,47.50
2019-03-23T12:51:12.406Z,44.40
2019-03-23T12:56:18.092Z,50.90
2019-03-23T13:01:23.662Z,49.20
2019-03-23T13:06:28.884Z,46.70
2019-03-23T13:11:35.446Z,48.30
2019-03-23T13:16:41.241Z,49.40
2019-03-23T13:21:46.847Z,47.50
2019-03-23T13:26:52.660Z,47.10
2019-03-23T13:31:57.965Z,47.60
2019-03-23T13:37:03.283Z,50.90
2019-03-23T13:42:09.310Z,51.10
2019-03-23T13:47:18.779Z,50.80
2019-03-23T13:52:24.166Z,53.00
2019-03-23T13:57:29.202Z,55.90
2019-03-23T14:02:35.296Z,56.90
2019-03-23T14:07:50.093Z,55.40
2019-03-23T14:12:58.119Z,55.80
2019-03-23T14:18:09.293Z,56.80
2019-03-23T14:23:14.693Z,56.60
2019-03-23T14:28:22.446Z,56.20
2019-03-23T14:33:29.126Z,56.70
2019-03-23T14:38:34.167Z,57.80
2019-03-23T14:43:39.671Z,56.90
2019-03-23T14:48:46.698Z,58.10
2019-03-23T14:53:53.862Z,58.80
2019-03-23T14:58:59.755Z,58.80
2019-03-23T15:04:14.268Z,58.80
2019-03-23T15:09:23.712Z,59.50
2019-03-23T15:14:29.202Z,59.70
2019-03-23T15:19:34.387Z,59.60
2019-03-23T15:24:39.816Z,60.60
2019-03-23T15:29:44.975Z,60.00
2019-03-23T15:34:50.076Z,60.00
2019-03-23T15:39:56.504Z,60.10
2019-03-23T15:45:02.889Z,60.50
2019-03-23T15:50:08.534Z,60.00
2019-03-23T15:55:16.261Z,60.20
2019-03-23T16:00:23.145Z,59.80
2019-03-23T16:05:28.555Z,61.00
2019-03-23T16:10:34.573Z,62.10
2019-03-23T16:15:39.841Z,61.50
2019-03-23T16:20:45.206Z,61.70
2019-03-23T16:25:50.864Z,61.30
2019-03-23T16:30:56.089Z,61.60
2019-03-23T16:36:03.488Z,62.50
2019-03-23T16:41:07.912Z,63.20
2019-03-23T16:46:13.368Z,63.90
2019-03-23T16:51:19.014Z,64.50
2019-03-23T16:56:24.059Z,65.00
2019-03-23T17:01:30.601Z,65.30
2019-03-23T17:06:45.813Z,66.30
2019-03-23T17:11:43.096Z,67.80
2019-03-23T17:16:48.891Z,68.50
2019-03-23T17:21:53.959Z,69.00
2019-03-23T17:26:59.185Z,69.70
2019-03-23T17:32:06.451Z,70.50
2019-03-23T17:37:11.468Z,71.60
2019-03-23T17:42:17.185Z,73.90
2019-03-23T17:47:22.793Z,73.50
2019-03-23T17:52:33.674Z,74.30
2019-03-23T17:57:39.062Z,75.20
2019-03-23T18:02:46.843Z,76.00
2019-03-23T18:07:52.664Z,77.70
2019-03-23T18:12:58.422Z,78.40
2019-03-23T18:18:03.423Z,78.60
2019-03-23T18:23:09.315Z,79.10
2019-03-23T18:28:15.043Z,79.50
2019-03-23T18:33:20.572Z,79.80
2019-03-23T18:38:25.734Z,80.20
2019-03-23T18:43:31.043Z,80.80
2019-03-23T18:48:36.458Z,81.50
2019-03-23T18:53:42.403Z,82.00
2019-03-23T18:58:47.302Z,83.80
2019-03-23T19:03:53.365Z,84.90
2019-03-23T19:08:59.982Z,86.00
2019-03-23T19:14:05.079Z,86.10
2019-03-23T19:19:10.140Z,86.80
2019-03-23T19:24:16.770Z,90.00
2019-03-23T19:29:21.866Z,92.20
2019-03-23T19:34:26.996Z,94.20
2019-03-23T19:39:32.543Z,97.10
2019-03-23T19:44:38.447Z,99.90
2019-03-23T19:49:46.802Z,99.90
2019-03-23T19:54:52.522Z,99.90
2019-03-23T19:59:57.789Z,99.90
2019-03-23T20:05:03.536Z,99.90
2019-03-23T20:10:10.234Z,99.90
2019-03-23T20:15:16.001Z,99.90
2019-03-23T20:20:22.109Z,99.90
2019-03-23T20:25:28.002Z,99.90
2019-03-23T20:30:33.232Z,99.90
2019-03-23T20:35:40.242Z,99.90
2019-03-23T20:40:53.302Z,99.90
2019-03-23T20:45:59.041Z,99.90
2019-03-23T20:51:04.965Z,99.90
2019-03-23T20:56:16.744Z,99.90
2019-03-23T21:01:22.181Z,99.90
2019-03-23T21:06:27.591Z,99.90
2019-03-23T21:11:33.216Z,99.90
2019-03-23T21:16:39.278Z,99.90
2019-03-23T21:21:45.264Z,99.90
2019-03-23T21:26:50.734Z,99.90
2019-03-23T21:31:55.870Z,99.90
2019-03-23T21:37:01.477Z,99.90
2019-03-23T21:42:08.065Z,99.90
2019-03-23T21:47:15.402Z,99.90
2019-03-23T21:52:20.960Z,99.90
2019-03-23T21:57:27.116Z,99.90
2019-03-23T22:02:34.335Z,99.90
2019-03-23T22:07:42.489Z,99.90
2019-03-23T22:12:50.347Z,99.90
2019-03-23T22:17:56.472Z,99.90
2019-03-23T22:23:02.388Z,99.90
2019-03-23T22:28:09.497Z,99.90
2019-03-23T22:33:14.558Z,99.90
2019-03-23T22:38:20.747Z,99.90
2019-03-23T22:43:29.387Z,99.90
2019-03-23T22:48:37.573Z,99.90
2019-03-23T22:53:44.014Z,99.90
2019-03-23T22:58:52.671Z,99.90
2019-03-23T23:03:59.159Z,99.90
2019-03-23T23:09:06.203Z,99.90
2019-03-23T23:14:11.779Z,99.90
2019-03-23T23:19:17.093Z,99.90
2019-03-23T23:24:22.953Z,99.90
2019-03-23T23:29:29.188Z,99.90
2019-03-23T23:34:34.857Z,99.90
2019-03-23T23:39:39.997Z,99.90
2019-03-23T23:44:45.391Z,99.90
2019-03-23T23:49:50.656Z,99.90
2019-03-23T23:54:55.794Z,99.90
